OOCL California — VRWC8 — position and weather

sailwx.info

Track history (hours):
 
Tides and Currents Weather Stations Pressure Air Temp Water Temp Dewpoint Dewpoint Depression Visibility Wind Speed Wind Dir Waves Ship Positions

OOCL California

Last reported at 2017-Mar-24 07:33 UTC. Time now 2017-Mar-27 00:48 UTC.
Position N 01°14' E 103°58'.

Length 276 m; beam 40 m; draft 14 m.

Type: Ship. MMSI: 477704000.

Date/timePositionNaut miles runAvg speedWind from/ knotsBaromVisibWave heightAir tempDewpointWater temp
2017-Mar-24 07:33N 01°14' E 103°58'1111.4
2017-Mar-24 06:33N 01°14' E 103°47'1 1.1
2017-Mar-24 05:32N 01°15' E 103°47'0 0.1
2017-Mar-24 04:34N 01°15' E 103°47'0 0.0
2017-Mar-24 03:34N 01°15' E 103°47'0 0.0
2017-Mar-24 02:33N 01°15' E 103°47'0 0.0
2017-Mar-24 01:34N 01°15' E 103°47'0 0.1
2017-Mar-24 00:34N 01°15' E 103°47'0 0.0
2017-Mar-23 23:33N 01°15' E 103°47'0 0.0
2017-Mar-23 22:33N 01°15' E 103°47'0 0.1
2017-Mar-23 21:33N 01°16' E 103°47'0 0.1
2017-Mar-23 20:34N 01°15' E 103°47'0 0.1
2017-Mar-23 19:34N 01°15' E 103°47'0 0.1
2017-Mar-23 18:33N 01°15' E 103°47'0 0.0
2017-Mar-23 17:34N 01°15' E 103°47'0 0.0
2017-Mar-23 16:33N 01°15' E 103°47'0 0.1
2017-Mar-23 15:34N 01°15' E 103°47'2 2.3
2017-Mar-23 14:34N 01°17' E 103°45'1 0.8
2017-Mar-23 13:32N 01°17' E 103°46'0 0.0
2017-Mar-23 12:32N 01°17' E 103°46'0 0.0
2017-Mar-23 11:32N 01°17' E 103°46'0 0.0
2017-Mar-23 10:32N 01°17' E 103°46'0 0.0
2017-Mar-23 09:32N 01°17' E 103°46'0 0.1
2017-Mar-23 08:33N 01°17' E 103°46'1 1.2
2017-Mar-23 07:33N 01°17' E 103°45'3 3.1
2017-Mar-23 06:33N 01°14' E 103°43'8 8.0
2017-Mar-23 05:33N 01°12' E 103°36'8 7.6
2017-Mar-23 04:33N 01°10' E 103°28'1211.0
2017-Mar-23 03:30N 01°16' E 103°18'2511.5
2017-Mar-23 01:18N 01°31' E 102°58'911.5
2017-Mar-23 00:31N 01°37' E 102°51'2613.4
2017-Mar-22 22:33N 01°48' E 102°27'1714.0
2017-Mar-22 21:22N 01°55' E 102°12'  
Track history (hours):
 
Tides and Currents Weather Stations Pressure Air Temp Water Temp Dewpoint Dewpoint Depression Visibility Wind Speed Wind Dir Waves Ship Positions

OOCL California

Last reported at 2017-Mar-24 07:33 UTC. Time now 2017-Mar-27 00:48 UTC.
Position N 01°14' E 103°58'.

Length 276 m; beam 40 m; draft 14 m.

Type: Ship. MMSI: 477704000.

Date/timePositionNaut miles runAvg speedWind from/ knotsBaromVisibWave heightAir tempDewpointWater temp
2017-Mar-24 07:33N 01°14' E 103°58'1111.4
2017-Mar-24 06:33N 01°14' E 103°47'1 1.1
2017-Mar-24 05:32N 01°15' E 103°47'0 0.1
2017-Mar-24 04:34N 01°15' E 103°47'0 0.0
2017-Mar-24 03:34N 01°15' E 103°47'0 0.0
2017-Mar-24 02:33N 01°15' E 103°47'0 0.0
2017-Mar-24 01:34N 01°15' E 103°47'0 0.1
2017-Mar-24 00:34N 01°15' E 103°47'0 0.0
2017-Mar-23 23:33N 01°15' E 103°47'0 0.0
2017-Mar-23 22:33N 01°15' E 103°47'0 0.1
2017-Mar-23 21:33N 01°16' E 103°47'0 0.1
2017-Mar-23 20:34N 01°15' E 103°47'0 0.1
2017-Mar-23 19:34N 01°15' E 103°47'0 0.1
2017-Mar-23 18:33N 01°15' E 103°47'0 0.0
2017-Mar-23 17:34N 01°15' E 103°47'0 0.0
2017-Mar-23 16:33N 01°15' E 103°47'0 0.1
2017-Mar-23 15:34N 01°15' E 103°47'2 2.3
2017-Mar-23 14:34N 01°17' E 103°45'1 0.8
2017-Mar-23 13:32N 01°17' E 103°46'0 0.0
2017-Mar-23 12:32N 01°17' E 103°46'0 0.0
2017-Mar-23 11:32N 01°17' E 103°46'0 0.0
2017-Mar-23 10:32N 01°17' E 103°46'0 0.0
2017-Mar-23 09:32N 01°17' E 103°46'0 0.1
2017-Mar-23 08:33N 01°17' E 103°46'1 1.2
2017-Mar-23 07:33N 01°17' E 103°45'3 3.1
2017-Mar-23 06:33N 01°14' E 103°43'8 8.0
2017-Mar-23 05:33N 01°12' E 103°36'8 7.6
2017-Mar-23 04:33N 01°10' E 103°28'1211.0
2017-Mar-23 03:30N 01°16' E 103°18'2511.5
2017-Mar-23 01:18N 01°31' E 102°58'911.5
2017-Mar-23 00:31N 01°37' E 102°51'2613.4
2017-Mar-22 22:33N 01°48' E 102°27'1714.0
2017-Mar-22 21:22N 01°55' E 102°12'  

Dump ship's entire track history